createdAt,value
2016-10-20T00:00:07.173Z,1006.93
2016-10-20T00:05:03.813Z,1006.89
2016-10-20T00:10:02.803Z,1006.80
2016-10-20T00:14:58.537Z,1006.89
2016-10-20T00:19:55.077Z,1006.87
2016-10-20T00:24:51.524Z,1006.87
2016-10-20T00:29:48.158Z,1006.83
2016-10-20T00:34:44.568Z,1006.72
2016-10-20T00:39:40.812Z,1006.76
2016-10-20T00:44:37.188Z,1006.70
2016-10-20T00:49:34.054Z,1006.71
2016-10-20T00:54:30.637Z,1006.63
2016-10-20T00:59:27.212Z,1006.62
2016-10-20T01:04:24.240Z,1006.61
2016-10-20T01:09:20.702Z,1006.61
2016-10-20T01:14:17.066Z,1006.66
2016-10-20T01:19:13.432Z,1006.66
2016-10-20T01:24:09.941Z,1006.56
2016-10-20T01:29:07.083Z,1006.64
2016-10-20T01:34:03.624Z,1006.64
2016-10-20T01:39:00.261Z,1006.51
2016-10-20T01:43:57.063Z,1006.41
2016-10-20T01:48:53.330Z,1006.42
2016-10-20T01:53:50.081Z,1006.50
2016-10-20T01:58:47.168Z,1006.30
2016-10-20T02:03:43.726Z,1006.26
2016-10-20T02:08:40.116Z,1006.14
2016-10-20T02:13:36.549Z,1006.12
2016-10-20T02:18:35.447Z,1006.23
2016-10-20T02:23:31.128Z,1006.13
2016-10-20T02:28:28.838Z,1006.24
2016-10-20T02:33:24.892Z,1006.23
2016-10-20T02:38:21.324Z,1006.15
2016-10-20T02:43:17.965Z,1006.16
2016-10-20T02:48:14.941Z,1006.05
2016-10-20T02:53:11.420Z,1006.06
2016-10-20T02:58:07.905Z,1005.97
2016-10-20T03:03:04.356Z,1006.05
2016-10-20T03:08:00.542Z,1006.05
2016-10-20T03:12:56.886Z,1006.06
2016-10-20T03:17:53.586Z,1006.04
2016-10-20T03:22:50.289Z,1006.02
2016-10-20T03:27:46.907Z,1006.01
2016-10-20T03:32:43.253Z,1005.96
2016-10-20T03:37:40.559Z,1006.02
2016-10-20T03:42:37.009Z,1006.00
2016-10-20T03:47:33.029Z,1005.99
2016-10-20T03:52:29.686Z,1006.06
2016-10-20T03:57:26.360Z,1006.05
2016-10-20T04:02:25.035Z,1006.01
2016-10-20T04:07:22.090Z,1005.92
2016-10-20T04:12:18.180Z,1005.88
2016-10-20T04:17:14.556Z,1005.94
2016-10-20T04:22:11.240Z,1005.95
2016-10-20T04:27:07.719Z,1005.91
2016-10-20T04:32:04.126Z,1005.99
2016-10-20T04:37:01.390Z,1005.94
2016-10-20T04:46:57.576Z,1005.87
2016-10-20T04:51:53.977Z,1005.86
2016-10-20T04:56:50.463Z,1005.84
2016-10-20T05:01:47.022Z,1005.90
2016-10-20T05:06:43.693Z,1005.94
2016-10-20T05:11:42.617Z,1005.99
2016-10-20T05:16:38.486Z,1006.01
2016-10-20T05:21:34.826Z,1005.99
2016-10-20T05:26:31.140Z,1005.92
2016-10-20T05:31:27.587Z,1005.97
2016-10-20T05:36:24.386Z,1005.94
2016-10-20T05:41:20.753Z,1005.99
2016-10-20T05:46:17.818Z,1006.06
2016-10-20T05:51:13.910Z,1006.12
2016-10-20T05:56:12.928Z,1006.16
2016-10-20T06:01:08.897Z,1006.21
2016-10-20T06:06:05.428Z,1006.18
2016-10-20T06:11:01.936Z,1006.19
2016-10-20T06:15:58.483Z,1006.18
2016-10-20T06:20:54.915Z,1006.12
2016-10-20T06:25:51.326Z,1006.13
2016-10-20T06:30:47.891Z,1006.13
2016-10-20T06:35:45.571Z,1006.23
2016-10-20T06:40:42.040Z,1006.09
2016-10-20T06:45:38.557Z,1006.04
2016-10-20T06:50:35.193Z,1006.05
2016-10-20T06:55:31.611Z,1006.08
2016-10-20T07:00:28.133Z,1006.09
2016-10-20T07:05:24.637Z,1006.11
2016-10-20T07:10:21.275Z,1006.11
2016-10-20T07:15:17.959Z,1006.14
2016-10-20T07:20:14.516Z,1006.21
2016-10-20T07:25:10.962Z,1006.21
2016-10-20T07:30:07.651Z,1006.16
2016-10-20T07:35:06.991Z,1006.22
2016-10-20T07:40:02.593Z,1006.22
2016-10-20T07:44:59.730Z,1006.33
2016-10-20T07:49:58.235Z,1006.37
2016-10-20T07:54:53.951Z,1006.32
2016-10-20T07:59:50.839Z,1006.35
2016-10-20T08:04:47.582Z,1006.22
2016-10-20T08:09:44.372Z,1006.30
2016-10-20T08:14:40.832Z,1006.33
2016-10-20T08:19:37.829Z,1006.32
2016-10-20T08:24:35.954Z,1006.34
2016-10-20T08:29:32.279Z,1006.28
2016-10-20T08:34:28.543Z,1006.32
2016-10-20T08:39:25.119Z,1006.41
2016-10-20T08:44:21.372Z,1006.43
2016-10-20T08:49:18.292Z,1006.31
2016-10-20T08:54:15.505Z,1006.33
2016-10-20T08:59:15.509Z,1006.33
2016-10-20T09:04:12.073Z,1006.39
2016-10-20T09:09:09.315Z,1006.38
2016-10-20T09:14:05.694Z,1006.40
2016-10-20T09:19:02.438Z,1006.36
2016-10-20T09:23:59.273Z,1006.32
2016-10-20T09:28:56.683Z,1006.27
2016-10-20T09:33:52.734Z,1006.32
2016-10-20T09:38:49.459Z,1006.40
2016-10-20T09:43:45.885Z,1006.32
2016-10-20T09:48:42.765Z,1006.37
2016-10-20T09:53:39.317Z,1006.39
2016-10-20T09:58:35.734Z,1006.45
2016-10-20T10:03:32.553Z,1006.44
2016-10-20T10:08:29.302Z,1006.46
2016-10-20T10:13:25.929Z,1006.46
2016-10-20T10:18:22.855Z,1006.44
2016-10-20T10:23:19.501Z,1006.42
2016-10-20T10:28:15.733Z,1006.38
2016-10-20T10:33:12.134Z,1006.35
2016-10-20T10:38:08.931Z,1006.37
2016-10-20T10:43:05.632Z,1006.50
2016-10-20T10:48:02.105Z,1006.49
2016-10-20T10:52:58.566Z,1006.40
2016-10-20T10:57:55.188Z,1006.46
2016-10-20T11:02:51.600Z,1006.43
2016-10-20T11:07:47.994Z,1006.43
2016-10-20T11:12:52.415Z,1006.34
2016-10-20T11:17:48.502Z,1006.30
2016-10-20T11:22:45.410Z,1006.30
2016-10-20T11:27:41.457Z,1006.33
2016-10-20T11:32:37.610Z,1006.41
2016-10-20T11:37:33.660Z,1006.35
2016-10-20T11:42:30.228Z,1006.24
2016-10-20T11:47:26.515Z,1006.19
2016-10-20T11:52:23.052Z,1006.27
2016-10-20T11:57:19.629Z,1006.28
2016-10-20T12:02:20.223Z,1006.26
2016-10-20T12:07:15.933Z,1006.25
2016-10-20T12:12:12.334Z,1006.24
2016-10-20T12:17:09.096Z,1006.21
2016-10-20T12:22:05.909Z,1006.12
2016-10-20T12:27:02.375Z,1006.12
2016-10-20T12:31:58.757Z,1006.17
2016-10-20T12:36:55.615Z,1006.19
2016-10-20T12:41:52.363Z,1006.06
2016-10-20T12:46:48.800Z,1006.13
2016-10-20T12:51:45.275Z,1006.13
2016-10-20T12:56:41.778Z,1006.10
2016-10-20T13:01:38.277Z,1006.11
2016-10-20T13:06:34.488Z,1006.10
2016-10-20T13:11:30.931Z,1006.09
2016-10-20T13:16:27.452Z,1006.03
2016-10-20T13:26:24.921Z,1006.07
2016-10-20T13:31:21.059Z,1006.01
2016-10-20T13:36:18.091Z,1006.07
2016-10-20T13:41:14.533Z,1006.04
2016-10-20T13:46:11.025Z,1006.11
2016-10-20T13:51:07.919Z,1006.03
2016-10-20T13:56:04.408Z,1006.09
2016-10-20T14:01:01.071Z,1006.09
2016-10-20T14:05:57.658Z,1006.12
2016-10-20T14:10:56.705Z,1006.15
2016-10-20T14:15:52.679Z,1006.20
2016-10-20T14:20:49.215Z,1006.20
2016-10-20T14:25:46.203Z,1006.29
2016-10-20T14:30:43.228Z,1006.35
2016-10-20T14:35:39.819Z,1006.37
2016-10-20T14:40:36.031Z,1006.33
2016-10-20T14:45:32.558Z,1006.37
2016-10-20T14:50:28.926Z,1006.38
2016-10-20T14:55:25.243Z,1006.41
2016-10-20T15:00:21.981Z,1006.43
2016-10-20T15:05:18.453Z,1006.42
2016-10-20T15:10:15.586Z,1006.45
2016-10-20T15:15:13.450Z,1006.43
2016-10-20T15:20:09.488Z,1006.38
2016-10-20T15:25:05.871Z,1006.54
2016-10-20T15:30:02.220Z,1006.49
2016-10-20T15:34:58.702Z,1006.44
2016-10-20T15:39:55.117Z,1006.46
2016-10-20T15:44:56.499Z,1006.54
2016-10-20T15:49:54.937Z,1006.58
2016-10-20T15:54:50.903Z,1006.58
2016-10-20T15:59:47.377Z,1006.60
2016-10-20T16:04:43.700Z,1006.62
2016-10-20T16:09:41.471Z,1006.71
2016-10-20T16:14:37.879Z,1006.72
2016-10-20T16:19:35.496Z,1006.65
2016-10-20T16:24:31.703Z,1006.72
2016-10-20T16:29:28.199Z,1006.71
2016-10-20T16:34:25.381Z,1006.69
2016-10-20T16:39:21.761Z,1006.76
2016-10-20T16:44:20.094Z,1006.83
2016-10-20T16:49:16.420Z,1006.84
2016-10-20T16:54:13.165Z,1006.89
2016-10-20T16:59:09.697Z,1006.85
2016-10-20T17:04:06.088Z,1006.93
2016-10-20T17:09:02.501Z,1006.91
2016-10-20T17:14:00.283Z,1006.91
2016-10-20T17:18:56.643Z,1006.99
2016-10-20T17:23:53.245Z,1007.01
2016-10-20T17:28:49.774Z,1006.97
2016-10-20T17:33:47.486Z,1007.03
2016-10-20T17:38:43.662Z,1006.99
2016-10-20T17:43:40.135Z,1007.07
2016-10-20T17:48:36.705Z,1007.06
2016-10-20T17:53:33.308Z,1007.08
2016-10-20T17:58:30.514Z,1007.12
2016-10-20T18:03:27.041Z,1007.14
2016-10-20T18:08:24.863Z,1007.23
2016-10-20T18:13:20.732Z,1007.14
2016-10-20T18:18:18.292Z,1007.18
2016-10-20T18:23:14.967Z,1007.24
2016-10-20T18:28:12.163Z,1007.26
2016-10-20T18:33:08.714Z,1007.28
2016-10-20T18:38:05.485Z,1007.26
2016-10-20T18:43:03.283Z,1007.22
2016-10-20T18:47:59.563Z,1007.18
2016-10-20T18:52:56.259Z,1007.16
2016-10-20T18:57:52.645Z,1007.19
2016-10-20T19:02:50.152Z,1007.18
2016-10-20T19:07:46.625Z,1007.31
2016-10-20T19:12:43.358Z,1007.27
2016-10-20T19:17:40.106Z,1007.21
2016-10-20T19:22:37.226Z,1007.30
2016-10-20T19:27:33.947Z,1007.32
2016-10-20T19:32:30.046Z,1007.29
2016-10-20T19:37:26.608Z,1007.31
2016-10-20T19:42:23.115Z,1007.40
2016-10-20T19:47:19.728Z,1007.39
2016-10-20T19:52:16.346Z,1007.43
2016-10-20T19:57:12.811Z,1007.47
2016-10-20T20:02:09.651Z,1007.47
2016-10-20T20:07:06.021Z,1007.58
2016-10-20T20:12:02.429Z,1007.63
2016-10-20T20:16:59.060Z,1007.58
2016-10-20T20:21:56.628Z,1007.67
2016-10-20T20:26:52.812Z,1007.77
2016-10-20T20:31:49.411Z,1007.78
2016-10-20T20:36:47.154Z,1007.76
2016-10-20T20:41:43.302Z,1007.76
2016-10-20T20:46:39.866Z,1007.81
2016-10-20T20:51:37.433Z,1007.88
2016-10-20T20:56:36.226Z,1007.87
2016-10-20T21:01:32.780Z,1007.90
2016-10-20T21:06:29.361Z,1007.91
2016-10-20T21:11:25.777Z,1007.91
2016-10-20T21:16:22.506Z,1007.93
2016-10-20T21:21:18.835Z,1007.97
2016-10-20T21:26:15.744Z,1008.03
2016-10-20T21:31:12.645Z,1007.96
2016-10-20T21:41:10.143Z,1008.04
2016-10-20T21:46:06.625Z,1008.05
2016-10-20T21:51:04.565Z,1008.01
2016-10-20T21:56:01.006Z,1008.08
2016-10-20T22:00:57.956Z,1008.08
2016-10-20T22:10:56.292Z,1008.16
2016-10-20T22:15:53.205Z,1008.19
2016-10-20T22:20:50.570Z,1008.13
2016-10-20T22:25:46.714Z,1008.14
2016-10-20T22:30:43.250Z,1008.18
2016-10-20T22:35:40.610Z,1008.17
2016-10-20T22:40:36.569Z,1008.15
2016-10-20T22:45:33.017Z,1008.21
2016-10-20T22:50:32.441Z,1008.13
2016-10-20T22:55:29.472Z,1008.08
2016-10-20T23:00:25.929Z,1008.04
2016-10-20T23:05:22.462Z,1008.06
2016-10-20T23:10:21.461Z,1008.15
2016-10-20T23:15:18.110Z,1008.16
2016-10-20T23:20:14.719Z,1008.08
2016-10-20T23:25:12.292Z,1008.19
2016-10-20T23:30:08.433Z,1008.11
2016-10-20T23:35:05.085Z,1008.11
2016-10-20T23:40:01.290Z,1008.10
2016-10-20T23:44:57.792Z,1008.10
2016-10-20T23:49:54.330Z,1008.17
2016-10-20T23:54:51.850Z,1008.18
2016-10-20T23:59:48.262Z,1008.18
